sensor_id;sensor_type;location;lat;lon;timestamp;pressure;altitude;pressure_sealevel;temperature;humidity
48216;BME280;34005;48.844;10.098;2023-04-25T00:02:00;96033.38;;;9.10;70.87
48216;BME280;34005;48.844;10.098;2023-04-25T00:04:31;96023.03;;;9.16;73.61
48216;BME280;34005;48.844;10.098;2023-04-25T00:07:00;96028.31;;;9.23;73.56
48216;BME280;34005;48.844;10.098;2023-04-25T00:09:29;96022.75;;;9.33;74.72
48216;BME280;34005;48.844;10.098;2023-04-25T00:11:57;96030.00;;;9.37;73.51
48216;BME280;34005;48.844;10.098;2023-04-25T00:14:24;96032.44;;;9.39;72.21
48216;BME280;34005;48.844;10.098;2023-04-25T00:16:52;96040.69;;;9.42;74.46
48216;BME280;34005;48.844;10.098;2023-04-25T00:19:20;96034.50;;;9.50;74.84
48216;BME280;34005;48.844;10.098;2023-04-25T00:21:49;96035.09;;;9.45;72.31
48216;BME280;34005;48.844;10.098;2023-04-25T00:24:16;96039.22;;;9.40;70.40
48216;BME280;34005;48.844;10.098;2023-04-25T00:26:44;96037.81;;;9.37;69.54
48216;BME280;34005;48.844;10.098;2023-04-25T00:29:12;96033.63;;;9.36;70.49
48216;BME280;34005;48.844;10.098;2023-04-25T00:31:40;96031.56;;;9.32;68.94
48216;BME280;34005;48.844;10.098;2023-04-25T00:34:07;96030.81;;;9.38;72.50
48216;BME280;34005;48.844;10.098;2023-04-25T00:36:36;96032.72;;;9.51;74.94
48216;BME280;34005;48.844;10.098;2023-04-25T00:39:05;96034.56;;;9.57;73.65
48216;BME280;34005;48.844;10.098;2023-04-25T00:41:34;96028.13;;;9.53;69.63
48216;BME280;34005;48.844;10.098;2023-04-25T00:44:03;96028.13;;;9.53;72.07
48216;BME280;34005;48.844;10.098;2023-04-25T00:46:31;96023.75;;;9.60;74.45
48216;BME280;34005;48.844;10.098;2023-04-25T00:48:59;96029.22;;;9.65;72.63
48216;BME280;34005;48.844;10.098;2023-04-25T00:51:27;96028.97;;;9.60;69.48
48216;BME280;34005;48.844;10.098;2023-04-25T00:53:55;96024.16;;;9.57;71.06
48216;BME280;34005;48.844;10.098;2023-04-25T00:56:24;96022.78;;;9.61;72.21
48216;BME280;34005;48.844;10.098;2023-04-25T00:58:53;96029.03;;;9.66;73.50
48216;BME280;34005;48.844;10.098;2023-04-25T01:01:22;96025.00;;;9.64;71.00
48216;BME280;34005;48.844;10.098;2023-04-25T01:03:50;96022.38;;;9.64;71.57
48216;BME280;34005;48.844;10.098;2023-04-25T01:06:21;96029.03;;;9.66;71.67
48216;BME280;34005;48.844;10.098;2023-04-25T01:08:48;96022.44;;;9.70;72.25
48216;BME280;34005;48.844;10.098;2023-04-25T01:11:16;96027.47;;;9.72;70.61
48216;BME280;34005;48.844;10.098;2023-04-25T01:13:46;96026.28;;;9.75;70.55
48216;BME280;34005;48.844;10.098;2023-04-25T01:16:14;96025.91;;;9.78;72.13
48216;BME280;34005;48.844;10.098;2023-04-25T01:18:42;96020.50;;;9.79;71.77
48216;BME280;34005;48.844;10.098;2023-04-25T01:21:13;96016.72;;;9.82;72.38
48216;BME280;34005;48.844;10.098;2023-04-25T01:23:41;96008.06;;;9.81;72.12
48216;BME280;34005;48.844;10.098;2023-04-25T01:26:11;96010.06;;;9.79;70.35
48216;BME280;34005;48.844;10.098;2023-04-25T01:28:39;96009.66;;;9.76;69.70
48216;BME280;34005;48.844;10.098;2023-04-25T01:31:11;96008.03;;;9.75;70.96
48216;BME280;34005;48.844;10.098;2023-04-25T01:33:42;95996.59;;;9.69;68.94
48216;BME280;34005;48.844;10.098;2023-04-25T01:36:12;96000.00;;;9.69;71.96
48216;BME280;34005;48.844;10.098;2023-04-25T01:38:52;95995.97;;;9.67;69.84
48216;BME280;34005;48.844;10.098;2023-04-25T01:41:38;96000.41;;;9.66;69.51
48216;BME280;34005;48.844;10.098;2023-04-25T01:44:08;95996.56;;;9.62;68.36
48216;BME280;34005;48.844;10.098;2023-04-25T01:46:42;95999.34;;;9.61;69.56
48216;BME280;34005;48.844;10.098;2023-04-25T01:49:19;95990.91;;;9.59;67.48
48216;BME280;34005;48.844;10.098;2023-04-25T01:51:48;95994.72;;;9.56;67.17
48216;BME280;34005;48.844;10.098;2023-04-25T01:54:17;95995.06;;;9.53;71.21
48216;BME280;34005;48.844;10.098;2023-04-25T01:56:51;95988.44;;;9.51;71.29
48216;BME280;34005;48.844;10.098;2023-04-25T01:59:26;95993.03;;;9.48;70.99
48216;BME280;34005;48.844;10.098;2023-04-25T02:01:55;95988.66;;;9.49;72.93
48216;BME280;34005;48.844;10.098;2023-04-25T02:05:14;96001.28;;;9.52;74.42
48216;BME280;34005;48.844;10.098;2023-04-25T02:43:20;95983.31;;;9.64;76.05
48216;BME280;34005;48.844;10.098;2023-04-25T02:52:08;95980.53;;;9.65;72.12
48216;BME280;34005;48.844;10.098;2023-04-25T03:31:11;95962.41;;;9.51;73.03
48216;BME280;34005;48.844;10.098;2023-04-25T03:38:01;95959.97;;;9.42;75.02
48216;BME280;34005;48.844;10.098;2023-04-25T05:43:24;95986.38;;;9.67;74.53
48216;BME280;34005;48.844;10.098;2023-04-25T05:45:54;95989.97;;;9.66;71.40
48216;BME280;34005;48.844;10.098;2023-04-25T05:48:22;95986.75;;;9.64;72.73
48216;BME280;34005;48.844;10.098;2023-04-25T05:50:51;95990.56;;;9.68;73.64
48216;BME280;34005;48.844;10.098;2023-04-25T05:53:19;95991.75;;;9.66;70.57
48216;BME280;34005;48.844;10.098;2023-04-25T05:55:48;95992.59;;;9.66;70.06
48216;BME280;34005;48.844;10.098;2023-04-25T05:58:16;95992.59;;;9.66;70.43
48216;BME280;34005;48.844;10.098;2023-04-25T06:00:46;95988.94;;;9.61;69.50
48216;BME280;34005;48.844;10.098;2023-04-25T06:03:15;95995.72;;;9.62;71.31
48216;BME280;34005;48.844;10.098;2023-04-25T06:05:47;95998.72;;;9.59;71.07
48216;BME280;34005;48.844;10.098;2023-04-25T06:08:20;96000.91;;;9.55;70.56
48216;BME280;34005;48.844;10.098;2023-04-25T06:10:49;96001.47;;;9.51;69.27
48216;BME280;34005;48.844;10.098;2023-04-25T06:13:18;95998.25;;;9.48;69.27
48216;BME280;34005;48.844;10.098;2023-04-25T06:15:50;95995.50;;;9.57;71.92
48216;BME280;34005;48.844;10.098;2023-04-25T06:18:19;96008.38;;;9.65;71.96
48216;BME280;34005;48.844;10.098;2023-04-25T06:20:48;96002.78;;;9.68;70.14
48216;BME280;34005;48.844;10.098;2023-04-25T06:23:17;96003.78;;;9.67;70.00
48216;BME280;34005;48.844;10.098;2023-04-25T06:25:46;95998.78;;;9.65;68.83
48216;BME280;34005;48.844;10.098;2023-04-25T06:28:15;96006.41;;;9.67;69.10
48216;BME280;34005;48.844;10.098;2023-04-25T06:30:44;96009.22;;;9.72;70.12
48216;BME280;34005;48.844;10.098;2023-04-25T06:33:17;96003.44;;;9.77;67.49
48216;BME280;34005;48.844;10.098;2023-04-25T06:35:59;96004.72;;;9.87;69.52
48216;BME280;34005;48.844;10.098;2023-04-25T06:38:28;96005.19;;;9.98;69.90
48216;BME280;34005;48.844;10.098;2023-04-25T06:40:58;96002.44;;;10.06;68.46
48216;BME280;34005;48.844;10.098;2023-04-25T06:43:27;95995.22;;;10.08;67.26
48216;BME280;34005;48.844;10.098;2023-04-25T06:46:00;96001.00;;;10.10;68.68
48216;BME280;34005;48.844;10.098;2023-04-25T06:48:31;95997.03;;;10.14;69.22
48216;BME280;34005;48.844;10.098;2023-04-25T06:50:59;96004.84;;;10.14;66.26
48216;BME280;34005;48.844;10.098;2023-04-25T06:53:29;96002.81;;;10.09;66.55
48216;BME280;34005;48.844;10.098;2023-04-25T06:55:59;96004.22;;;10.12;67.81
48216;BME280;34005;48.844;10.098;2023-04-25T06:58:30;96005.47;;;10.16;67.59
48216;BME280;34005;48.844;10.098;2023-04-25T07:01:02;96005.69;;;10.21;68.54
48216;BME280;34005;48.844;10.098;2023-04-25T07:03:33;96002.50;;;10.26;67.91
48216;BME280;34005;48.844;10.098;2023-04-25T07:06:03;96000.09;;;10.24;65.51
48216;BME280;34005;48.844;10.098;2023-04-25T07:08:31;96007.69;;;10.19;64.56
48216;BME280;34005;48.844;10.098;2023-04-25T07:11:01;96005.44;;;10.09;67.15
48216;BME280;34005;48.844;10.098;2023-04-25T07:13:31;96005.25;;;10.11;66.89
48216;BME280;34005;48.844;10.098;2023-04-25T07:15:59;96008.69;;;10.18;66.68
48216;BME280;34005;48.844;10.098;2023-04-25T07:18:27;96006.69;;;10.20;67.56
48216;BME280;34005;48.844;10.098;2023-04-25T07:20:56;96007.91;;;10.24;67.54
48216;BME280;34005;48.844;10.098;2023-04-25T07:23:23;95996.88;;;10.22;67.68
48216;BME280;34005;48.844;10.098;2023-04-25T07:25:51;96004.69;;;10.22;67.06
48216;BME280;34005;48.844;10.098;2023-04-25T07:28:18;96006.88;;;10.19;67.12
48216;BME280;34005;48.844;10.098;2023-04-25T07:30:46;96003.25;;;10.13;65.87
48216;BME280;34005;48.844;10.098;2023-04-25T07:33:14;96004.22;;;10.12;66.62
48216;BME280;34005;48.844;10.098;2023-04-25T07:35:41;96005.25;;;10.11;66.66
48216;BME280;34005;48.844;10.098;2023-04-25T07:38:10;96008.84;;;10.10;67.75
48216;BME280;34005;48.844;10.098;2023-04-25T07:40:38;96008.63;;;10.05;67.10
48216;BME280;34005;48.844;10.098;2023-04-25T07:43:06;96011.22;;;10.05;67.63
48216;BME280;34005;48.844;10.098;2023-04-25T07:45:34;96017.03;;;10.07;67.48
48216;BME280;34005;48.844;10.098;2023-04-25T07:48:01;96013.22;;;10.03;65.23
48216;BME280;34005;48.844;10.098;2023-04-25T07:50:30;96013.63;;;10.00;65.55
48216;BME280;34005;48.844;10.098;2023-04-25T07:52:57;96016.25;;;10.06;68.25
48216;BME280;34005;48.844;10.098;2023-04-25T07:55:26;96017.09;;;10.14;68.14
48216;BME280;34005;48.844;10.098;2023-04-25T07:57:54;96026.13;;;10.18;67.71
48216;BME280;34005;48.844;10.098;2023-04-25T08:00:22;96023.69;;;10.16;66.70
48216;BME280;34005;48.844;10.098;2023-04-25T08:02:50;96025.66;;;10.07;65.24
48216;BME280;34005;48.844;10.098;2023-04-25T08:05:18;96026.84;;;10.05;65.48
48216;BME280;34005;48.844;10.098;2023-04-25T08:07:48;96034.31;;;10.08;66.18
48216;BME280;34005;48.844;10.098;2023-04-25T08:10:16;96036.69;;;10.09;67.30
48216;BME280;34005;48.844;10.098;2023-04-25T08:12:45;96037.94;;;10.14;68.75
48216;BME280;34005;48.844;10.098;2023-04-25T08:15:12;96042.97;;;10.15;66.67
48216;BME280;34005;48.844;10.098;2023-04-25T08:17:41;96045.13;;;10.11;65.39
48216;BME280;34005;48.844;10.098;2023-04-25T08:20:11;96050.94;;;10.07;65.79
48216;BME280;34005;48.844;10.098;2023-04-25T08:22:39;96051.31;;;10.04;67.39
48216;BME280;34005;48.844;10.098;2023-04-25T08:25:06;96054.28;;;10.01;65.53
48216;BME280;34005;48.844;10.098;2023-04-25T08:27:34;96058.53;;;10.02;67.29
48216;BME280;34005;48.844;10.098;2023-04-25T08:30:05;96062.16;;;10.07;67.31
48216;BME280;34005;48.844;10.098;2023-04-25T08:32:34;96072.56;;;10.07;66.78
48216;BME280;34005;48.844;10.098;2023-04-25T08:35:04;96066.13;;;10.03;65.27
48216;BME280;34005;48.844;10.098;2023-04-25T08:37:33;96074.47;;;9.92;64.30
48216;BME280;34005;48.844;10.098;2023-04-25T08:40:00;96072.22;;;9.82;64.44
48216;BME280;34005;48.844;10.098;2023-04-25T08:42:31;96084.00;;;9.78;65.26
48216;BME280;34005;48.844;10.098;2023-04-25T08:45:00;96081.59;;;9.77;64.79
48216;BME280;34005;48.844;10.098;2023-04-25T08:47:33;96082.19;;;9.79;65.48
48216;BME280;34005;48.844;10.098;2023-04-25T08:50:02;96092.81;;;9.77;64.68
48216;BME280;34005;48.844;10.098;2023-04-25T08:52:35;96093.56;;;9.71;64.87
48216;BME280;34005;48.844;10.098;2023-04-25T08:55:06;96095.13;;;9.65;65.24
48216;BME280;34005;48.844;10.098;2023-04-25T08:57:35;96100.78;;;9.69;65.47
48216;BME280;34005;48.844;10.098;2023-04-25T09:00:04;96109.19;;;9.71;64.93
48216;BME280;34005;48.844;10.098;2023-04-25T09:02:33;96111.19;;;9.69;64.96
48216;BME280;34005;48.844;10.098;2023-04-25T09:05:02;96113.97;;;9.67;64.81
48216;BME280;34005;48.844;10.098;2023-04-25T09:07:30;96111.19;;;9.69;64.67
48216;BME280;34005;48.844;10.098;2023-04-25T09:09:58;96117.06;;;9.78;63.93
48216;BME280;34005;48.844;10.098;2023-04-25T09:12:29;96114.13;;;9.87;63.90
48216;BME280;34005;48.844;10.098;2023-04-25T09:15:07;96117.56;;;9.95;64.79
48216;BME280;34005;48.844;10.098;2023-04-25T09:17:36;96124.66;;;10.01;62.91
48216;BME280;34005;48.844;10.098;2023-04-25T09:20:08;96128.66;;;10.03;62.87
48216;BME280;34005;48.844;10.098;2023-04-25T09:22:37;96125.88;;;10.05;62.37
48216;BME280;34005;48.844;10.098;2023-04-25T09:25:09;96134.69;;;10.04;62.29
48216;BME280;34005;48.844;10.098;2023-04-25T09:27:49;96131.28;;;10.03;61.78
48216;BME280;34005;48.844;10.098;2023-04-25T09:30:17;96124.28;;;10.04;61.63
48216;BME280;34005;48.844;10.098;2023-04-25T09:32:46;96129.50;;;10.04;63.15
48216;BME280;34005;48.844;10.098;2023-04-25T09:35:23;96138.53;;;10.08;61.76
48216;BME280;34005;48.844;10.098;2023-04-25T09:37:51;96137.09;;;10.05;61.76
48216;BME280;34005;48.844;10.098;2023-04-25T09:40:19;96142.94;;;10.07;62.94
48216;BME280;34005;48.844;10.098;2023-04-25T09:42:46;96144.16;;;10.11;62.27
48216;BME280;34005;48.844;10.098;2023-04-25T09:45:14;96147.22;;;10.15;62.47
48216;BME280;34005;48.844;10.098;2023-04-25T09:47:42;96147.88;;;10.24;62.38
48216;BME280;34005;48.844;10.098;2023-04-25T09:50:15;96152.50;;;10.28;61.31
48216;BME280;34005;48.844;10.098;2023-04-25T09:52:43;96153.78;;;10.33;61.20
48216;BME280;34005;48.844;10.098;2023-04-25T09:55:11;96148.56;;;10.33;60.95
48216;BME280;34005;48.844;10.098;2023-04-25T09:57:39;96148.78;;;10.38;60.81
48216;BME280;34005;48.844;10.098;2023-04-25T10:00:09;96141.19;;;10.43;60.66
48216;BME280;34005;48.844;10.098;2023-04-25T10:02:42;96146.03;;;10.46;60.10
48216;BME280;34005;48.844;10.098;2023-04-25T10:05:10;96144.69;;;10.57;63.62
48216;BME280;34005;48.844;10.098;2023-04-25T10:07:40;96143.97;;;10.76;64.27
48216;BME280;34005;48.844;10.098;2023-04-25T10:10:08;96141.81;;;10.93;63.56
48216;BME280;34005;48.844;10.098;2023-04-25T10:12:39;96143.69;;;11.06;61.35
48216;BME280;34005;48.844;10.098;2023-04-25T10:15:10;96143.13;;;11.24;60.57
48216;BME280;34005;48.844;10.098;2023-04-25T10:17:39;96142.59;;;11.48;60.71
48216;BME280;34005;48.844;10.098;2023-04-25T10:20:08;96145.66;;;11.72;61.18
48216;BME280;34005;48.844;10.098;2023-04-25T10:22:41;96149.44;;;11.76;57.71
48216;BME280;34005;48.844;10.098;2023-04-25T10:25:09;96153.47;;;11.65;57.99
48216;BME280;34005;48.844;10.098;2023-04-25T10:27:38;96148.63;;;11.55;58.26
48216;BME280;34005;48.844;10.098;2023-04-25T10:30:08;96153.66;;;11.44;58.10
48216;BME280;34005;48.844;10.098;2023-04-25T10:32:38;96150.00;;;11.31;58.02
48216;BME280;34005;48.844;10.098;2023-04-25T10:35:13;96150.75;;;11.19;57.39
48216;BME280;34005;48.844;10.098;2023-04-25T10:38:03;96155.38;;;11.17;57.27
48216;BME280;34005;48.844;10.098;2023-04-25T10:40:32;96152.56;;;11.18;57.72
48216;BME280;34005;48.844;10.098;2023-04-25T10:43:33;96148.94;;;11.19;56.87
48216;BME280;34005;48.844;10.098;2023-04-25T10:46:01;96152.16;;;11.14;57.20
48216;BME280;34005;48.844;10.098;2023-04-25T10:48:30;96147.69;;;11.08;58.19
48216;BME280;34005;48.844;10.098;2023-04-25T10:51:08;96150.53;;;11.07;57.01
48216;BME280;34005;48.844;10.098;2023-04-25T10:53:37;96143.28;;;11.02;56.54
48216;BME280;34005;48.844;10.098;2023-04-25T10:56:10;96154.09;;;10.99;56.24
48216;BME280;34005;48.844;10.098;2023-04-25T10:58:43;96149.66;;;10.93;56.16
48216;BME280;34005;48.844;10.098;2023-04-25T11:01:13;96152.06;;;10.95;60.20
48216;BME280;34005;48.844;10.098;2023-04-25T11:03:41;96157.72;;;10.98;59.01
48216;BME280;34005;48.844;10.098;2023-04-25T11:06:17;96147.69;;;11.08;58.70
48216;BME280;34005;48.844;10.098;2023-04-25T11:08:50;96149.97;;;11.25;60.56
48216;BME280;34005;48.844;10.098;2023-04-25T11:11:19;96151.22;;;11.42;58.00
48216;BME280;34005;48.844;10.098;2023-04-25T11:13:48;96147.03;;;11.54;56.03
48216;BME280;34005;48.844;10.098;2023-04-25T11:16:17;96148.03;;;11.67;59.99
48216;BME280;34005;48.844;10.098;2023-04-25T11:19:04;96151.50;;;11.87;58.98
48216;BME280;34005;48.844;10.098;2023-04-25T11:21:32;96159.75;;;11.98;55.82
48216;BME280;34005;48.844;10.098;2023-04-25T11:24:01;96156.34;;;12.04;56.37
48216;BME280;34005;48.844;10.098;2023-04-25T11:26:29;96160.16;;;12.14;58.86
48216;BME280;34005;48.844;10.098;2023-04-25T11:28:58;96159.72;;;12.24;58.94
48216;BME280;34005;48.844;10.098;2023-04-25T11:31:26;96153.50;;;12.25;55.59
48216;BME280;34005;48.844;10.098;2023-04-25T11:33:56;96156.31;;;12.24;59.67
48216;BME280;34005;48.844;10.098;2023-04-25T11:36:24;96160.75;;;12.30;57.31
48216;BME280;34005;48.844;10.098;2023-04-25T11:38:53;96161.94;;;12.34;56.68
48216;BME280;34005;48.844;10.098;2023-04-25T11:41:22;96163.34;;;12.36;57.17
48216;BME280;34005;48.844;10.098;2023-04-25T11:43:50;96166.75;;;12.37;55.40
48216;BME280;34005;48.844;10.098;2023-04-25T11:46:21;96167.59;;;12.44;55.69
48216;BME280;34005;48.844;10.098;2023-04-25T11:48:49;96167.56;;;12.57;56.53
48216;BME280;34005;48.844;10.098;2023-04-25T11:51:17;96178.81;;;12.58;54.93
48216;BME280;34005;48.844;10.098;2023-04-25T11:53:45;96183.63;;;12.61;56.53
48216;BME280;34005;48.844;10.098;2023-04-25T11:56:14;96192.69;;;12.58;56.30
48216;BME280;34005;48.844;10.098;2023-04-25T11:58:58;96205.19;;;12.50;57.65
48216;BME280;34005;48.844;10.098;2023-04-25T12:01:28;96200.16;;;12.48;58.66
48216;BME280;34005;48.844;10.098;2023-04-25T12:04:10;96200.97;;;12.49;59.12
48216;BME280;34005;48.844;10.098;2023-04-25T12:06:39;96206.19;;;12.55;58.71
48216;BME280;34005;48.844;10.098;2023-04-25T12:09:08;96212.03;;;12.51;58.59
48216;BME280;34005;48.844;10.098;2023-04-25T12:11:43;96210.03;;;12.46;57.46
48216;BME280;34005;48.844;10.098;2023-04-25T12:14:19;96207.41;;;12.40;57.92
48216;BME280;34005;48.844;10.098;2023-04-25T12:16:48;96227.94;;;12.29;56.90
48216;BME280;34005;48.844;10.098;2023-04-25T12:19:16;96227.53;;;12.12;56.89
48216;BME280;34005;48.844;10.098;2023-04-25T12:21:44;96229.72;;;11.95;58.46
48216;BME280;34005;48.844;10.098;2023-04-25T12:24:24;96232.28;;;11.82;59.20
48216;BME280;34005;48.844;10.098;2023-04-25T12:26:59;96235.06;;;11.67;59.49
48216;BME280;34005;48.844;10.098;2023-04-25T12:29:30;96228.78;;;11.42;60.43
48216;BME280;34005;48.844;10.098;2023-04-25T12:32:13;96237.72;;;11.26;62.59
48216;BME280;34005;48.844;10.098;2023-04-25T12:34:41;96235.94;;;11.20;62.80
48216;BME280;34005;48.844;10.098;2023-04-25T12:37:09;96238.91;;;11.17;63.04
48216;BME280;34005;48.844;10.098;2023-04-25T12:39:37;96240.69;;;11.09;63.72
48216;BME280;34005;48.844;10.098;2023-04-25T12:42:05;96243.28;;;11.09;64.43
48216;BME280;34005;48.844;10.098;2023-04-25T12:44:36;96249.75;;;11.13;63.61
48216;BME280;34005;48.844;10.098;2023-04-25T12:47:04;96246.94;;;11.15;64.23
48216;BME280;34005;48.844;10.098;2023-04-25T12:49:32;96264.19;;;11.09;63.59
48216;BME280;34005;48.844;10.098;2023-04-25T12:51:59;96262.94;;;11.05;63.76
48216;BME280;34005;48.844;10.098;2023-04-25T12:54:27;96262.94;;;11.05;64.70
48216;BME280;34005;48.844;10.098;2023-04-25T12:56:55;96257.72;;;11.05;65.18
48216;BME280;34005;48.844;10.098;2023-04-25T12:59:22;96259.34;;;11.06;64.65
48216;BME280;34005;48.844;10.098;2023-04-25T13:01:51;96268.56;;;11.02;61.91
48216;BME280;34005;48.844;10.098;2023-04-25T13:04:19;96263.34;;;11.02;63.71
48216;BME280;34005;48.844;10.098;2023-04-25T13:06:48;96255.34;;;11.10;64.15
48216;BME280;34005;48.844;10.098;2023-04-25T13:09:15;96260.81;;;11.16;64.06
48216;BME280;34005;48.844;10.098;2023-04-25T13:11:43;96275.44;;;11.17;62.66
48216;BME280;34005;48.844;10.098;2023-04-25T13:14:12;96264.41;;;11.14;62.74
48216;BME280;34005;48.844;10.098;2023-04-25T13:16:39;96265.41;;;11.13;62.61
48216;BME280;34005;48.844;10.098;2023-04-25T13:19:09;96279.88;;;11.16;62.80
48216;BME280;34005;48.844;10.098;2023-04-25T13:21:37;96279.69;;;11.18;62.04
48216;BME280;34005;48.844;10.098;2023-04-25T13:24:06;96281.91;;;11.21;61.80
48216;BME280;34005;48.844;10.098;2023-04-25T13:26:33;96280.75;;;11.30;63.22
48216;BME280;34005;48.844;10.098;2023-04-25T13:29:01;96279.59;;;11.39;61.76
48216;BME280;34005;48.844;10.098;2023-04-25T13:31:30;96283.22;;;11.45;61.24
48216;BME280;34005;48.844;10.098;2023-04-25T13:33:58;96284.03;;;11.45;60.60
48216;BME280;34005;48.844;10.098;2023-04-25T13:36:27;96293.84;;;11.43;62.47
48216;BME280;34005;48.844;10.098;2023-04-25T13:38:55;96300.31;;;11.47;60.50
48216;BME280;34005;48.844;10.098;2023-04-25T13:41:22;96297.06;;;11.45;60.81
48216;BME280;34005;48.844;10.098;2023-04-25T13:43:50;96302.69;;;11.42;60.67
48216;BME280;34005;48.844;10.098;2023-04-25T13:46:18;96311.13;;;11.38;62.19
48216;BME280;34005;48.844;10.098;2023-04-25T13:49:06;96311.69;;;11.33;62.06
48216;BME280;34005;48.844;10.098;2023-04-25T13:51:40;96309.03;;;11.20;61.39
48216;BME280;34005;48.844;10.098;2023-04-25T13:54:08;96309.16;;;11.11;63.14
48216;BME280;34005;48.844;10.098;2023-04-25T13:56:36;96312.75;;;11.10;63.22
48216;BME280;34005;48.844;10.098;2023-04-25T13:59:03;96312.75;;;11.10;62.42
48216;BME280;34005;48.844;10.098;2023-04-25T14:01:31;96324.84;;;11.11;63.87
48216;BME280;34005;48.844;10.098;2023-04-25T14:04:00;96317.00;;;11.11;62.81
48216;BME280;34005;48.844;10.098;2023-04-25T14:06:31;96318.84;;;11.18;63.14
48216;BME280;34005;48.844;10.098;2023-04-25T14:09:00;96318.50;;;11.27;63.38
48216;BME280;34005;48.844;10.098;2023-04-25T14:11:27;96318.53;;;11.34;63.09
48216;BME280;34005;48.844;10.098;2023-04-25T14:13:55;96342.06;;;11.41;63.26
48216;BME280;34005;48.844;10.098;2023-04-25T14:16:23;96347.03;;;11.29;60.87
48216;BME280;34005;48.844;10.098;2023-04-25T14:18:51;96342.44;;;11.03;61.16
48216;BME280;34005;48.844;10.098;2023-04-25T14:21:18;96342.22;;;10.69;60.71
48216;BME280;34005;48.844;10.098;2023-04-25T14:23:47;96343.59;;;10.44;63.66
48216;BME280;34005;48.844;10.098;2023-04-25T14:26:16;96351.81;;;10.26;62.06
48216;BME280;34005;48.844;10.098;2023-04-25T14:28:44;96345.41;;;10.07;62.53
48216;BME280;34005;48.844;10.098;2023-04-25T14:31:11;96347.88;;;9.94;62.79
48216;BME280;34005;48.844;10.098;2023-04-25T14:33:39;96353.81;;;9.87;63.61
48216;BME280;34005;48.844;10.098;2023-04-25T14:36:09;96359.56;;;9.83;62.76
48216;BME280;34005;48.844;10.098;2023-04-25T14:38:36;96348.91;;;9.78;63.60
48216;BME280;34005;48.844;10.098;2023-04-25T14:41:04;96350.66;;;9.77;64.00
48216;BME280;34005;48.844;10.098;2023-04-25T14:43:33;96352.47;;;9.77;64.01
48216;BME280;34005;48.844;10.098;2023-04-25T14:46:01;96360.28;;;9.77;64.07
48216;BME280;34005;48.844;10.098;2023-04-25T14:48:29;96359.75;;;9.81;64.47
48216;BME280;34005;48.844;10.098;2023-04-25T14:50:57;96361.28;;;9.90;66.19
48216;BME280;34005;48.844;10.098;2023-04-25T14:53:24;96360.91;;;9.94;64.32
48216;BME280;34005;48.844;10.098;2023-04-25T14:55:53;96366.72;;;9.96;65.32
48216;BME280;34005;48.844;10.098;2023-04-25T14:58:20;96364.06;;;9.89;63.59
48216;BME280;34005;48.844;10.098;2023-04-25T15:00:50;96374.41;;;9.82;63.41
48216;BME280;34005;48.844;10.098;2023-04-25T15:03:18;96379.59;;;9.82;66.54
48216;BME280;34005;48.844;10.098;2023-04-25T15:05:46;96380.59;;;9.81;64.78
48216;BME280;34005;48.844;10.098;2023-04-25T15:08:13;96378.09;;;9.73;67.12
48216;BME280;34005;48.844;10.098;2023-04-25T15:10:41;96390.50;;;9.71;67.87
48216;BME280;34005;48.844;10.098;2023-04-25T15:13:09;96388.69;;;9.72;66.80
48216;BME280;34005;48.844;10.098;2023-04-25T15:15:36;96387.19;;;9.62;67.01
48216;BME280;34005;48.844;10.098;2023-04-25T15:18:05;96394.53;;;9.59;68.63
48216;BME280;34005;48.844;10.098;2023-04-25T15:20:34;96399.75;;;9.59;67.90
48216;BME280;34005;48.844;10.098;2023-04-25T15:23:01;96397.22;;;9.51;66.52
48216;BME280;34005;48.844;10.098;2023-04-25T15:25:31;96404.50;;;9.40;66.36
48216;BME280;34005;48.844;10.098;2023-04-25T15:27:58;96399.63;;;9.37;67.85
48216;BME280;34005;48.844;10.098;2023-04-25T15:30:26;96400.66;;;9.36;67.91
48216;BME280;34005;48.844;10.098;2023-04-25T15:32:53;96400.72;;;9.28;68.06
48216;BME280;34005;48.844;10.098;2023-04-25T15:35:23;96405.94;;;9.28;68.89
48216;BME280;34005;48.844;10.098;2023-04-25T15:37:50;96418.41;;;9.33;69.09
48216;BME280;34005;48.844;10.098;2023-04-25T15:40:18;96416.44;;;9.35;69.93
48216;BME280;34005;48.844;10.098;2023-04-25T15:42:47;96410.75;;;9.31;69.21
48216;BME280;34005;48.844;10.098;2023-04-25T15:45:17;96421.53;;;9.28;71.13
48216;BME280;34005;48.844;10.098;2023-04-25T15:47:46;96413.66;;;9.36;71.60
48216;BME280;34005;48.844;10.098;2023-04-25T15:50:13;96412.59;;;9.45;71.12
48216;BME280;34005;48.844;10.098;2023-04-25T15:52:43;96420.66;;;9.51;71.74
48216;BME280;34005;48.844;10.098;2023-04-25T15:55:11;96413.69;;;9.51;69.50
48216;BME280;34005;48.844;10.098;2023-04-25T15:57:39;96411.88;;;9.52;68.87
48216;BME280;34005;48.844;10.098;2023-04-25T16:00:08;96418.97;;;9.58;70.67
48216;BME280;34005;48.844;10.098;2023-04-25T16:02:39;96417.16;;;9.58;70.12
48216;BME280;34005;48.844;10.098;2023-04-25T16:05:07;96423.81;;;9.61;70.57
48216;BME280;34005;48.844;10.098;2023-04-25T16:07:36;96416.00;;;9.61;70.68
48216;BME280;34005;48.844;10.098;2023-04-25T16:10:07;96411.16;;;9.58;70.95
48216;BME280;34005;48.844;10.098;2023-04-25T16:12:35;96414.66;;;9.50;68.79
48216;BME280;34005;48.844;10.098;2023-04-25T16:15:03;96405.75;;;9.44;70.80
48216;BME280;34005;48.844;10.098;2023-04-25T16:17:30;96402.88;;;9.39;69.17
48216;BME280;34005;48.844;10.098;2023-04-25T16:19:59;96397.56;;;9.33;68.95
48216;BME280;34005;48.844;10.098;2023-04-25T16:22:29;96394.25;;;9.24;68.96
48216;BME280;34005;48.844;10.098;2023-04-25T16:24:57;96405.03;;;9.21;71.62
48216;BME280;34005;48.844;10.098;2023-04-25T16:27:26;96409.88;;;9.24;72.11
48216;BME280;34005;48.844;10.098;2023-04-25T16:29:54;96419.91;;;9.27;71.08
48216;BME280;34005;48.844;10.098;2023-04-25T16:32:21;96421.91;;;9.25;72.39
48216;BME280;34005;48.844;10.098;2023-04-25T16:34:49;96419.31;;;9.25;73.06